createdAt,value
2022-09-10T00:02:47.802Z,18.03
2022-09-10T00:05:51.560Z,18.04
2022-09-10T00:08:58.729Z,18.06
2022-09-10T00:12:01.586Z,17.99
2022-09-10T00:15:07.795Z,17.99
2022-09-10T00:18:12.404Z,18.02
2022-09-10T00:21:18.624Z,18.13
2022-09-10T00:24:22.539Z,18.13
2022-09-10T00:27:26.052Z,18.09
2022-09-10T00:30:28.777Z,18.06
2022-09-10T00:33:31.195Z,18.06
2022-09-10T00:36:39.719Z,18.08
2022-09-10T00:39:42.528Z,18.05
2022-09-10T00:42:48.010Z,18.10
2022-09-10T00:45:54.736Z,18.12
2022-09-10T00:49:01.998Z,18.14
2022-09-10T00:52:05.318Z,18.11
2022-09-10T00:55:09.451Z,18.16
2022-09-10T00:58:14.218Z,18.18
2022-09-10T01:01:19.140Z,18.22
2022-09-10T01:04:22.107Z,18.21
2022-09-10T01:07:29.123Z,18.24
2022-09-10T01:10:40.615Z,18.25
2022-09-10T01:13:50.137Z,18.26
2022-09-10T01:17:07.010Z,18.30
2022-09-10T01:20:35.950Z,18.24
2022-09-10T01:23:50.620Z,18.15
2022-09-10T01:27:27.072Z,18.10
2022-09-10T01:30:34.871Z,18.09
2022-09-10T01:33:49.970Z,18.09
2022-09-10T01:36:56.041Z,18.17
2022-09-10T01:40:00.164Z,18.13
2022-09-10T01:43:07.141Z,18.26
2022-09-10T01:46:21.661Z,18.19
2022-09-10T01:49:39.651Z,18.08
2022-09-10T01:52:49.356Z,18.02
2022-09-10T01:56:19.545Z,17.95
2022-09-10T01:59:54.363Z,17.87
2022-09-10T02:03:06.863Z,17.91
2022-09-10T02:06:13.364Z,17.80
2022-09-10T02:09:18.583Z,17.68
2022-09-10T02:12:23.050Z,17.77
2022-09-10T02:15:28.708Z,17.64
2022-09-10T02:18:35.327Z,17.66
2022-09-10T02:21:38.257Z,17.59
2022-09-10T02:24:44.345Z,17.50
2022-09-10T02:27:46.940Z,17.42
2022-09-10T02:30:49.690Z,17.53
2022-09-10T02:33:52.352Z,17.45
2022-09-10T02:36:57.605Z,17.44
2022-09-10T02:40:00.339Z,17.35
2022-09-10T02:43:04.775Z,17.32
2022-09-10T02:46:07.455Z,17.34
2022-09-10T02:49:11.574Z,17.22
2022-09-10T02:52:14.422Z,17.14
2022-09-10T02:55:18.146Z,17.14
2022-09-10T02:58:20.862Z,17.12
2022-09-10T03:01:24.013Z,17.09
2022-09-10T03:04:27.094Z,17.08
2022-09-10T03:07:30.456Z,17.12
2022-09-10T03:10:33.177Z,17.09
2022-09-10T03:13:36.191Z,17.00
2022-09-10T03:16:40.170Z,16.93
2022-09-10T03:19:43.777Z,16.99
2022-09-10T03:22:47.457Z,17.00
2022-09-10T03:25:50.728Z,16.91
2022-09-10T03:28:55.560Z,16.85
2022-09-10T03:31:58.776Z,16.89
2022-09-10T03:35:01.271Z,16.82
2022-09-10T03:38:03.975Z,16.74
2022-09-10T03:41:06.971Z,16.75
2022-09-10T03:44:10.283Z,16.85
2022-09-10T03:47:14.196Z,16.80
2022-09-10T03:50:17.102Z,16.78
2022-09-10T03:53:19.856Z,16.71
2022-09-10T03:56:22.807Z,16.76
2022-09-10T03:59:25.341Z,16.77
2022-09-10T04:02:30.969Z,16.71
2022-09-10T04:05:33.819Z,16.69
2022-09-10T04:08:36.497Z,16.79
2022-09-10T04:11:42.393Z,16.80
2022-09-10T04:14:46.684Z,16.85
2022-09-10T04:17:53.153Z,16.83
2022-09-10T04:20:56.450Z,16.69
2022-09-10T04:24:00.658Z,16.69
2022-09-10T04:27:03.607Z,16.72
2022-09-10T04:30:09.587Z,16.66
2022-09-10T04:33:12.233Z,16.84
2022-09-10T04:36:17.163Z,16.72
2022-09-10T04:39:19.771Z,16.74
2022-09-10T04:42:24.430Z,16.69
2022-09-10T04:45:27.979Z,16.71
2022-09-10T04:48:32.804Z,16.77
2022-09-10T04:51:35.309Z,16.76
2022-09-10T04:54:38.856Z,16.70
2022-09-10T04:57:42.273Z,16.74
2022-09-10T05:00:45.991Z,16.69
2022-09-10T05:03:49.132Z,16.69
2022-09-10T05:06:53.212Z,16.77
2022-09-10T05:09:55.720Z,16.78
2022-09-10T05:12:58.567Z,16.81
2022-09-10T05:16:01.654Z,16.85
2022-09-10T05:19:06.452Z,16.86
2022-09-10T05:22:09.932Z,16.91
2022-09-10T05:25:12.704Z,16.94
2022-09-10T05:28:16.460Z,17.04
2022-09-10T05:31:20.130Z,17.11
2022-09-10T05:34:22.674Z,17.24
2022-09-10T05:37:26.936Z,17.46
2022-09-10T05:40:30.019Z,17.74
2022-09-10T05:43:33.308Z,18.00
2022-09-10T05:46:35.803Z,18.10
2022-09-10T05:49:39.316Z,18.19
2022-09-10T05:52:41.782Z,18.31
2022-09-10T05:55:46.009Z,18.41
2022-09-10T05:58:49.699Z,18.50
2022-09-10T06:01:53.311Z,18.47
2022-09-10T06:04:56.442Z,18.39
2022-09-10T06:07:59.154Z,18.45
2022-09-10T06:11:07.429Z,18.40
2022-09-10T06:14:10.812Z,18.32
2022-09-10T06:17:13.590Z,18.44
2022-09-10T06:20:16.631Z,18.50
2022-09-10T06:23:19.872Z,18.62
2022-09-10T06:26:22.981Z,18.69
2022-09-10T06:29:29.433Z,18.69
2022-09-10T06:32:33.031Z,18.65
2022-09-10T06:35:37.007Z,18.85
2022-09-10T06:38:41.219Z,18.75
2022-09-10T06:41:49.577Z,18.95
2022-09-10T06:45:03.561Z,19.08
2022-09-10T06:48:37.687Z,19.09
2022-09-10T06:51:30.639Z,19.06
2022-09-10T06:54:33.540Z,18.96
2022-09-10T06:57:42.086Z,18.82
2022-09-10T07:00:47.692Z,18.60
2022-09-10T07:03:56.315Z,18.46
2022-09-10T07:07:00.781Z,18.57
2022-09-10T07:10:04.026Z,18.64
2022-09-10T07:13:07.847Z,18.51
2022-09-10T07:16:10.479Z,18.37
2022-09-10T07:19:15.038Z,18.33
2022-09-10T07:22:18.283Z,18.27
2022-09-10T07:25:23.584Z,18.27
2022-09-10T07:28:26.587Z,18.26
2022-09-10T07:31:31.596Z,18.13
2022-09-10T07:34:34.529Z,18.12
2022-09-10T07:37:39.249Z,18.30
2022-09-10T07:40:42.993Z,18.39
2022-09-10T07:43:45.917Z,18.45
2022-09-10T07:46:48.659Z,18.37
2022-09-10T07:49:52.888Z,18.50
2022-09-10T07:52:55.405Z,18.55
2022-09-10T07:56:01.050Z,18.73
2022-09-10T07:59:05.102Z,18.83
2022-09-10T08:02:13.945Z,18.83
2022-09-10T08:05:17.302Z,18.90
2022-09-10T08:08:20.207Z,18.92
2022-09-10T08:11:22.970Z,18.92
2022-09-10T08:14:25.957Z,19.06
2022-09-10T08:17:30.752Z,19.22
2022-09-10T08:20:33.726Z,19.53
2022-09-10T08:23:39.544Z,19.65
2022-09-10T08:26:42.467Z,19.67
2022-09-10T08:29:45.427Z,19.90
2022-09-10T08:32:48.997Z,20.03
2022-09-10T08:35:59.632Z,20.04
2022-09-10T08:39:06.272Z,20.33
2022-09-10T08:42:24.556Z,20.27
2022-09-10T08:45:32.853Z,20.68
2022-09-10T08:48:40.896Z,21.10
2022-09-10T08:51:57.124Z,21.42
2022-09-10T08:55:22.763Z,21.41
2022-09-10T08:58:45.256Z,21.70
2022-09-10T09:02:02.222Z,21.93
2022-09-10T09:05:14.238Z,22.14
2022-09-10T09:08:21.833Z,21.92
2022-09-10T09:11:46.526Z,21.83
2022-09-10T09:15:08.663Z,21.53
2022-09-10T09:18:42.176Z,21.67
2022-09-10T09:21:52.294Z,21.54
2022-09-10T09:25:00.748Z,21.39
2022-09-10T09:28:10.261Z,21.58
2022-09-10T09:31:17.157Z,21.75
2022-09-10T09:34:28.049Z,21.80
2022-09-10T09:37:31.315Z,21.87
2022-09-10T09:41:00.528Z,22.09
2022-09-10T09:44:19.537Z,22.37
2022-09-10T09:47:23.208Z,22.49
2022-09-10T09:50:25.897Z,22.54
2022-09-10T09:53:29.840Z,22.57
2022-09-10T09:56:39.011Z,22.58
2022-09-10T09:59:42.021Z,22.92
2022-09-10T10:02:44.577Z,23.12
2022-09-10T10:05:48.484Z,23.11
2022-09-10T10:09:00.204Z,23.30
2022-09-10T10:12:05.809Z,23.35
2022-09-10T10:15:38.776Z,23.18
2022-09-10T10:18:43.252Z,23.23
2022-09-10T10:21:47.353Z,23.21
2022-09-10T10:24:52.606Z,23.24
2022-09-10T10:27:55.430Z,23.39
2022-09-10T10:31:00.690Z,23.12
2022-09-10T10:34:09.308Z,23.11
2022-09-10T10:37:38.161Z,22.68
2022-09-10T10:41:14.164Z,22.62
2022-09-10T10:44:19.766Z,22.68
2022-09-10T10:47:28.227Z,22.91
2022-09-10T10:50:58.593Z,22.98
2022-09-10T10:54:23.713Z,23.01
2022-09-10T10:57:26.417Z,23.36
2022-09-10T11:00:44.122Z,23.57
2022-09-10T11:03:57.336Z,23.96
2022-09-10T11:07:09.883Z,24.33
2022-09-10T11:10:20.740Z,24.35
2022-09-10T11:13:31.578Z,24.59
2022-09-10T11:16:42.076Z,24.51
2022-09-10T11:20:27.317Z,24.48
2022-09-10T11:23:39.497Z,24.45
2022-09-10T11:26:54.039Z,24.16
2022-09-10T11:30:06.891Z,24.21
2022-09-10T11:33:23.420Z,24.23
2022-09-10T11:37:03.608Z,24.25
2022-09-10T11:40:23.571Z,24.36
2022-09-10T11:43:37.967Z,24.34
2022-09-10T11:46:59.784Z,24.45
2022-09-10T11:50:11.391Z,24.18
2022-09-10T11:53:16.592Z,24.22
2022-09-10T11:56:34.630Z,24.37
2022-09-10T11:59:49.456Z,24.13
2022-09-10T12:03:29.584Z,23.95
2022-09-10T12:07:09.593Z,24.27
2022-09-10T12:10:19.216Z,24.17
2022-09-10T12:13:22.524Z,24.35
2022-09-10T12:16:36.482Z,24.08
2022-09-10T12:19:48.210Z,23.94
2022-09-10T12:22:54.836Z,23.88
2022-09-10T12:26:17.944Z,23.98
2022-09-10T12:29:30.384Z,24.06
2022-09-10T12:32:33.146Z,24.06
2022-09-10T12:35:35.617Z,24.24
2022-09-10T12:39:09.205Z,24.48
2022-09-10T12:42:28.475Z,24.47
2022-09-10T12:46:03.180Z,24.63
2022-09-10T12:49:12.223Z,24.47
2022-09-10T12:52:25.556Z,24.44
2022-09-10T12:55:59.497Z,24.30
2022-09-10T12:59:38.801Z,24.39
2022-09-10T13:02:50.390Z,24.25
2022-09-10T13:05:56.619Z,24.53
2022-09-10T13:08:59.172Z,24.53
2022-09-10T13:12:14.912Z,24.71
2022-09-10T13:15:20.773Z,24.69
2022-09-10T13:18:26.518Z,24.45
2022-09-10T13:21:28.843Z,24.44
2022-09-10T13:24:35.569Z,24.45
2022-09-10T13:27:40.292Z,24.34
2022-09-10T13:30:43.924Z,24.59
2022-09-10T13:33:49.300Z,24.65
2022-09-10T13:37:24.577Z,24.17
2022-09-10T13:40:55.937Z,24.01
2022-09-10T13:44:13.483Z,24.07
2022-09-10T13:47:57.333Z,24.33
2022-09-10T13:51:11.948Z,24.57
2022-09-10T13:54:36.054Z,24.47
2022-09-10T13:57:42.576Z,24.49
2022-09-10T14:01:05.201Z,24.71
2022-09-10T14:04:44.876Z,24.81
2022-09-10T14:07:47.950Z,25.02
2022-09-10T14:10:56.127Z,25.22
2022-09-10T14:14:17.629Z,25.27
2022-09-10T14:17:25.782Z,25.35
2022-09-10T14:20:34.163Z,25.37
2022-09-10T14:23:40.244Z,25.51
2022-09-10T14:27:06.475Z,25.45
2022-09-10T14:30:21.472Z,25.55
2022-09-10T14:33:33.489Z,26.00
2022-09-10T14:36:36.245Z,26.13
2022-09-10T14:39:44.430Z,25.92
2022-09-10T14:42:49.788Z,25.68
2022-09-10T14:45:52.267Z,25.56
2022-09-10T14:49:02.431Z,25.58
2022-09-10T14:52:05.995Z,25.25
2022-09-10T14:55:08.661Z,25.58
2022-09-10T14:58:11.571Z,25.49
2022-09-10T15:01:14.916Z,25.76
2022-09-10T15:04:22.984Z,26.24
2022-09-10T15:07:27.452Z,26.56
2022-09-10T15:10:30.295Z,27.44
2022-09-10T15:13:37.232Z,28.06
2022-09-10T15:16:39.749Z,28.87
2022-09-10T15:19:42.476Z,28.72
2022-09-10T15:22:45.106Z,29.33
2022-09-10T15:25:50.575Z,29.17
2022-09-10T15:28:53.039Z,29.83
2022-09-10T15:31:59.548Z,30.06
2022-09-10T15:35:03.295Z,30.77
2022-09-10T15:38:06.108Z,31.26
2022-09-10T15:41:12.630Z,31.59
2022-09-10T15:44:15.748Z,30.80
2022-09-10T15:47:18.230Z,29.94
2022-09-10T15:50:21.158Z,29.25
2022-09-10T15:53:23.545Z,29.73
2022-09-10T15:56:26.620Z,29.74
2022-09-10T15:59:29.203Z,29.71
2022-09-10T16:02:32.399Z,28.30
2022-09-10T16:05:35.282Z,27.38
2022-09-10T16:08:37.793Z,26.70
2022-09-10T16:11:42.410Z,26.07
2022-09-10T16:14:45.296Z,25.87
2022-09-10T16:17:48.557Z,25.65
2022-09-10T16:20:51.191Z,25.19
2022-09-10T16:23:56.751Z,24.78
2022-09-10T16:26:59.524Z,24.04
2022-09-10T16:30:02.295Z,23.65
2022-09-10T16:33:06.204Z,23.15
2022-09-10T16:36:10.819Z,22.92
2022-09-10T16:39:15.966Z,22.82
2022-09-10T16:42:19.141Z,22.58
2022-09-10T16:45:21.651Z,22.39
2022-09-10T16:48:24.462Z,22.26
2022-09-10T16:51:28.795Z,22.06
2022-09-10T16:54:31.902Z,21.96
2022-09-10T16:57:34.614Z,21.74
2022-09-10T17:00:38.165Z,21.65
2022-09-10T17:03:42.361Z,21.43
2022-09-10T17:06:48.810Z,21.34
2022-09-10T17:09:51.371Z,21.31
2022-09-10T17:12:54.166Z,21.21
2022-09-10T17:16:37.487Z,21.10
2022-09-10T17:19:40.306Z,20.91
2022-09-10T17:22:42.860Z,20.75
2022-09-10T17:25:45.640Z,20.74
2022-09-10T17:28:59.180Z,20.68
2022-09-10T17:32:02.198Z,20.59
2022-09-10T17:35:05.160Z,20.53
2022-09-10T17:38:08.315Z,20.31
2022-09-10T17:41:14.596Z,20.21
2022-09-10T17:44:18.065Z,20.07
2022-09-10T17:47:21.748Z,19.87
2022-09-10T17:50:24.463Z,19.85
2022-09-10T17:53:27.029Z,19.80
2022-09-10T17:56:30.784Z,19.85
2022-09-10T17:59:34.186Z,19.71
2022-09-10T18:02:37.122Z,19.54
2022-09-10T18:05:40.593Z,19.58
2022-09-10T18:08:43.183Z,19.49
2022-09-10T18:11:46.061Z,19.46
2022-09-10T18:14:48.568Z,19.47
2022-09-10T18:17:51.376Z,19.36
2022-09-10T18:20:53.933Z,19.31
2022-09-10T18:24:03.181Z,19.25
2022-09-10T18:27:05.678Z,19.06
2022-09-10T18:30:09.114Z,19.03
2022-09-10T18:33:11.689Z,18.92
2022-09-10T18:36:18.103Z,18.82
2022-09-10T18:39:22.093Z,18.74
2022-09-10T18:42:25.201Z,18.77
2022-09-10T18:45:28.006Z,18.74
2022-09-10T18:48:34.510Z,18.85
2022-09-10T18:51:37.349Z,18.68
2022-09-10T18:54:45.937Z,18.81
2022-09-10T18:57:48.964Z,18.59
2022-09-10T19:00:54.355Z,18.52
2022-09-10T19:04:03.132Z,18.51
2022-09-10T19:07:06.774Z,18.47
2022-09-10T19:10:09.430Z,18.39
2022-09-10T19:13:12.308Z,18.28
2022-09-10T19:16:15.345Z,18.33
2022-09-10T19:19:22.194Z,18.20
2022-09-10T19:22:24.679Z,18.24
2022-09-10T19:25:27.365Z,18.19
2022-09-10T19:28:33.559Z,18.31
2022-09-10T19:31:36.393Z,18.25
2022-09-10T19:34:39.027Z,18.23
2022-09-10T19:37:42.111Z,18.39
2022-09-10T19:40:44.615Z,18.30
2022-09-10T19:43:50.852Z,18.37
2022-09-10T19:46:53.290Z,18.31
2022-09-10T19:49:58.151Z,18.21
2022-09-10T19:53:00.683Z,18.34
2022-09-10T19:56:20.120Z,18.27
2022-09-10T19:59:23.288Z,18.24
2022-09-10T20:02:26.251Z,18.15
2022-09-10T20:05:30.728Z,18.12
2022-09-10T20:08:33.952Z,18.23
2022-09-10T20:11:37.871Z,18.28
2022-09-10T20:14:40.367Z,18.20
2022-09-10T20:17:43.146Z,18.06
2022-09-10T20:20:46.692Z,18.03
2022-09-10T20:23:52.449Z,17.93
2022-09-10T20:26:54.855Z,17.80
2022-09-10T20:29:57.647Z,17.77
2022-09-10T20:33:01.420Z,17.76
2022-09-10T20:36:10.772Z,17.83
2022-09-10T20:39:15.814Z,17.76
2022-09-10T20:42:18.628Z,17.68
2022-09-10T20:45:21.071Z,17.50
2022-09-10T20:48:25.333Z,17.40
2022-09-10T20:51:27.743Z,17.46
2022-09-10T20:54:30.967Z,17.39
2022-09-10T20:57:33.631Z,17.32
2022-09-10T21:00:36.350Z,17.28
2022-09-10T21:03:43.233Z,17.29
2022-09-10T21:06:45.994Z,17.32
2022-09-10T21:09:48.443Z,17.35
2022-09-10T21:12:51.159Z,17.21
2022-09-10T21:15:54.009Z,17.27
2022-09-10T21:19:09.565Z,17.26
2022-09-10T21:22:12.607Z,17.13
2022-09-10T21:25:15.472Z,17.17
2022-09-10T21:28:17.936Z,17.07
2022-09-10T21:31:20.718Z,16.97
2022-09-10T21:34:23.654Z,16.98
2022-09-10T21:37:26.608Z,17.02
2022-09-10T21:40:29.036Z,16.95
2022-09-10T21:43:33.641Z,16.83
2022-09-10T21:46:36.298Z,16.85
2022-09-10T21:49:39.320Z,16.78
2022-09-10T21:52:41.783Z,16.91
2022-09-10T21:55:44.572Z,16.74
2022-09-10T21:58:47.438Z,16.71
2022-09-10T22:01:50.364Z,16.64
2022-09-10T22:04:53.273Z,16.66
2022-09-10T22:07:55.742Z,16.57
2022-09-10T22:11:03.936Z,16.66
2022-09-10T22:14:26.696Z,16.78
2022-09-10T22:17:29.605Z,16.72
2022-09-10T22:20:33.456Z,16.78
2022-09-10T22:23:38.351Z,16.89
2022-09-10T22:26:43.295Z,16.80
2022-09-10T22:29:46.065Z,16.70
2022-09-10T22:32:48.584Z,16.70
2022-09-10T22:35:51.846Z,16.76
2022-09-10T22:38:57.002Z,16.67
2022-09-10T22:41:59.709Z,16.64
2022-09-10T22:45:02.122Z,16.68
2022-09-10T22:48:04.951Z,16.76
2022-09-10T22:51:12.790Z,16.68
2022-09-10T22:54:16.591Z,16.58
2022-09-10T22:57:19.121Z,16.62
2022-09-10T23:00:22.184Z,16.63
2022-09-10T23:03:24.676Z,16.64
2022-09-10T23:06:32.440Z,16.60
2022-09-10T23:09:35.055Z,16.47
2022-09-10T23:12:38.634Z,16.37
2022-09-10T23:15:41.152Z,16.33
2022-09-10T23:18:48.552Z,16.23
2022-09-10T23:21:53.968Z,16.18
2022-09-10T23:24:56.752Z,16.09
2022-09-10T23:27:59.223Z,16.04
2022-09-10T23:31:32.468Z,15.92
2022-09-10T23:34:34.981Z,15.88
2022-09-10T23:37:38.295Z,15.82
2022-09-10T23:40:41.607Z,15.74
2022-09-10T23:43:45.449Z,15.71
2022-09-10T23:46:48.366Z,15.72
2022-09-10T23:49:51.106Z,15.68
2022-09-10T23:52:53.507Z,15.59
2022-09-10T23:55:57.359Z,15.67
2022-09-10T23:59:00.082Z,15.62
